createdAt,value
2023-05-22T00:01:06.800Z,93930.22
2023-05-22T00:03:33.773Z,93927.34
2023-05-22T00:06:00.524Z,93927.94
2023-05-22T00:08:29.592Z,93931.59
2023-05-22T00:10:56.574Z,93922.50
2023-05-22T00:13:23.207Z,93922.16
2023-05-22T00:15:49.722Z,93918.50
2023-05-22T00:18:16.360Z,93918.25
2023-05-22T00:20:42.903Z,93921.41
2023-05-22T00:23:10.404Z,93915.44
2023-05-22T00:25:37.616Z,93923.84
2023-05-22T00:28:04.774Z,93920.53
2023-05-22T00:30:31.894Z,93920.19
2023-05-22T00:32:58.511Z,93917.22
2023-05-22T00:35:25.662Z,93921.72
2023-05-22T00:37:52.106Z,93913.41
2023-05-22T00:40:18.675Z,93924.63
2023-05-22T00:42:45.567Z,93917.91
2023-05-22T00:45:14.772Z,93920.13
2023-05-22T00:47:41.922Z,93907.03
2023-05-22T00:50:11.090Z,93920.94
2023-05-22T00:52:43.202Z,93923.44
2023-05-22T00:55:11.842Z,93921.53
2023-05-22T00:57:41.974Z,93903.41
2023-05-22T01:00:13.194Z,93906.16
2023-05-22T01:02:39.780Z,93920.22
2023-05-22T01:05:07.736Z,93906.59
2023-05-22T01:07:37.706Z,93916.59
2023-05-22T01:10:06.171Z,93903.41
2023-05-22T01:12:48.911Z,93913.41
2023-05-22T01:15:31.896Z,93915.81
2023-05-22T01:18:05.546Z,93920.09
2023-05-22T01:20:40.811Z,93914.63
2023-05-22T01:23:13.567Z,93907.41
2023-05-22T01:25:49.332Z,93918.25
2023-05-22T01:28:30.476Z,93916.72
2023-05-22T01:31:02.613Z,93915.81
2023-05-22T01:33:35.837Z,93919.78
2023-05-22T01:36:03.924Z,93927.00
2023-05-22T01:38:31.274Z,93931.72
2023-05-22T01:40:59.446Z,93926.78
2023-05-22T01:43:26.169Z,93927.88
2023-05-22T01:45:53.166Z,93928.53
2023-05-22T01:48:19.834Z,93935.06
2023-05-22T01:50:51.372Z,93934.22
2023-05-22T01:53:52.745Z,93934.53
2023-05-22T01:56:30.747Z,93938.03
2023-05-22T01:59:20.865Z,93938.13
2023-05-22T02:01:49.904Z,93940.34
2023-05-22T02:04:19.852Z,93941.19
2023-05-22T02:06:47.345Z,93944.69
2023-05-22T02:09:16.790Z,93942.50
2023-05-22T02:11:43.498Z,93947.59
2023-05-22T02:14:12.208Z,93941.34
2023-05-22T02:16:38.941Z,93946.31
2023-05-22T02:19:06.066Z,93949.28
2023-05-22T02:21:34.204Z,93948.22
2023-05-22T02:24:02.092Z,93948.22
2023-05-22T02:26:28.808Z,93935.81
2023-05-22T02:28:55.379Z,93939.56
2023-05-22T02:31:21.948Z,93942.84
2023-05-22T02:33:48.564Z,93941.94
2023-05-22T02:36:15.154Z,93938.44
2023-05-22T02:38:41.634Z,93937.88
2023-05-22T02:41:08.455Z,93934.97
2023-05-22T02:43:34.929Z,93935.53
2023-05-22T02:46:01.503Z,93938.78
2023-05-22T02:48:29.255Z,93937.56
2023-05-22T02:50:55.819Z,93933.97
2023-05-22T02:53:22.342Z,93929.16
2023-05-22T02:55:48.890Z,93936.41
2023-05-22T02:58:15.614Z,93937.94
2023-05-22T03:00:42.180Z,93938.72
2023-05-22T03:03:09.223Z,93936.41
2023-05-22T03:05:35.787Z,93930.28
2023-05-22T03:08:02.736Z,93936.47
2023-05-22T03:10:29.837Z,93936.66
2023-05-22T03:12:56.310Z,93938.28
2023-05-22T03:15:22.905Z,93941.53
2023-05-22T03:17:52.909Z,93931.69
2023-05-22T03:20:19.476Z,93934.44
2023-05-22T03:22:46.119Z,93944.44
2023-05-22T03:25:13.212Z,93938.84
2023-05-22T03:27:41.051Z,93936.09
2023-05-22T03:30:08.381Z,93945.38
2023-05-22T03:32:37.860Z,93947.22
2023-05-22T03:35:06.128Z,93939.88
2023-05-22T03:37:32.602Z,93940.38
2023-05-22T03:39:59.144Z,93944.28
2023-05-22T03:42:29.156Z,93937.72
2023-05-22T03:44:56.894Z,93940.50
2023-05-22T03:47:24.999Z,93939.00
2023-05-22T03:49:51.485Z,93939.75
2023-05-22T03:52:17.994Z,93942.06
2023-05-22T03:54:44.487Z,93940.66
2023-05-22T03:57:11.110Z,93940.59
2023-05-22T03:59:37.771Z,93940.38
2023-05-22T04:02:05.415Z,93953.78
2023-05-22T04:04:34.020Z,93950.47
2023-05-22T04:07:02.625Z,93953.56
2023-05-22T04:09:31.688Z,93953.25
2023-05-22T04:11:58.781Z,93958.03
2023-05-22T04:14:26.164Z,93960.34
2023-05-22T04:16:52.700Z,93951.38
2023-05-22T04:19:19.205Z,93952.31
2023-05-22T04:21:46.434Z,93953.81
2023-05-22T04:24:13.176Z,93954.44
2023-05-22T04:26:42.307Z,93956.44
2023-05-22T04:29:10.439Z,93956.44
2023-05-22T04:31:37.408Z,93965.22
2023-05-22T04:34:05.261Z,93962.38
2023-05-22T04:36:31.866Z,93959.56
2023-05-22T04:39:00.379Z,93969.56
2023-05-22T04:41:27.004Z,93965.19
2023-05-22T04:43:54.548Z,93966.53
2023-05-22T04:46:21.228Z,93968.31
2023-05-22T04:48:47.868Z,93971.94
2023-05-22T04:51:15.854Z,93967.84
2023-05-22T04:53:42.560Z,93966.03
2023-05-22T04:56:09.142Z,93962.53
2023-05-22T04:58:37.848Z,93955.44
2023-05-22T05:01:04.590Z,93975.59
2023-05-22T05:03:31.335Z,93973.19
2023-05-22T05:05:59.482Z,93970.44
2023-05-22T05:08:27.298Z,93966.22
2023-05-22T05:10:53.806Z,93975.06
2023-05-22T05:13:20.637Z,93968.94
2023-05-22T05:15:47.656Z,93959.75
2023-05-22T05:18:14.351Z,93971.91
2023-05-22T05:20:42.012Z,93976.28
2023-05-22T05:23:10.279Z,93978.22
2023-05-22T05:25:38.628Z,93977.00
2023-05-22T05:28:10.714Z,93972.72
2023-05-22T05:30:39.260Z,93979.41
2023-05-22T05:33:26.194Z,93977.06
2023-05-22T05:36:16.297Z,93976.16
2023-05-22T05:38:44.617Z,93980.28
2023-05-22T05:41:12.498Z,93977.66
2023-05-22T05:43:38.977Z,93977.22
2023-05-22T05:46:08.098Z,93976.03
2023-05-22T05:48:35.170Z,93975.28
2023-05-22T05:51:01.817Z,93972.41
2023-05-22T05:53:32.651Z,93977.97
2023-05-22T05:55:59.257Z,93975.88
2023-05-22T05:58:27.945Z,93971.88
2023-05-22T06:01:03.761Z,93977.66
2023-05-22T06:03:31.270Z,93973.81
2023-05-22T06:06:07.991Z,93970.69
2023-05-22T06:08:53.392Z,93968.66
2023-05-22T06:11:27.029Z,93977.25
2023-05-22T06:13:54.599Z,93980.59
2023-05-22T06:16:21.175Z,93975.56
2023-05-22T06:18:48.438Z,93970.44
2023-05-22T06:21:15.957Z,93976.69
2023-05-22T06:23:42.433Z,93988.91
2023-05-22T06:26:08.992Z,93981.50
2023-05-22T06:28:38.729Z,93975.47
2023-05-22T06:31:05.572Z,93982.47
2023-05-22T06:33:34.392Z,93972.47
2023-05-22T06:36:01.210Z,93980.97
2023-05-22T06:38:28.356Z,93973.47
2023-05-22T06:40:54.913Z,93966.41
2023-05-22T06:43:24.847Z,93975.22
2023-05-22T06:45:58.725Z,93970.63
2023-05-22T06:48:37.683Z,93973.19
2023-05-22T06:51:11.509Z,93976.03
2023-05-22T06:53:39.735Z,93967.03
2023-05-22T06:56:11.759Z,93974.03
2023-05-22T06:58:48.861Z,93983.59
2023-05-22T07:01:15.482Z,93979.13
2023-05-22T07:03:49.734Z,93979.97
2023-05-22T07:06:38.826Z,93977.03
2023-05-22T07:09:06.203Z,93983.97
2023-05-22T07:11:33.019Z,93983.41
2023-05-22T07:14:01.178Z,93985.81
2023-05-22T07:16:29.698Z,93985.59
2023-05-22T07:18:56.462Z,93992.13
2023-05-22T07:21:25.715Z,93993.78
2023-05-22T07:23:52.964Z,93999.22
2023-05-22T07:26:22.422Z,93992.91
2023-05-22T07:28:57.121Z,93991.19
2023-05-22T07:31:23.930Z,93991.66
2023-05-22T07:33:51.344Z,93998.13
2023-05-22T07:36:19.034Z,93998.19
2023-05-22T07:38:46.479Z,93989.97
2023-05-22T07:41:13.770Z,93993.91
2023-05-22T07:43:40.418Z,94003.94
2023-05-22T07:46:09.428Z,93999.19
2023-05-22T07:48:43.972Z,94003.94
2023-05-22T07:51:10.744Z,93999.22
2023-05-22T07:53:37.331Z,93996.25
2023-05-22T07:56:04.882Z,93990.25
2023-05-22T07:58:33.941Z,93999.88
2023-05-22T08:01:01.788Z,93995.41
2023-05-22T08:03:28.539Z,93992.03
2023-05-22T08:05:55.232Z,93993.69
2023-05-22T08:08:21.774Z,93995.03
2023-05-22T08:11:03.258Z,93989.41
2023-05-22T08:13:31.027Z,93985.00
2023-05-22T08:16:00.701Z,93990.44
2023-05-22T08:18:29.223Z,93987.88
2023-05-22T08:20:56.353Z,93978.47
2023-05-22T08:23:22.932Z,93991.53
2023-05-22T08:25:50.226Z,93986.31
2023-05-22T08:28:16.960Z,93997.72
2023-05-22T08:30:43.480Z,93986.38
2023-05-22T08:33:10.196Z,93989.91
2023-05-22T08:35:36.781Z,93989.97
2023-05-22T08:38:03.290Z,93987.03
2023-05-22T08:40:36.184Z,93994.28
2023-05-22T08:43:03.225Z,93984.41
2023-05-22T08:45:29.945Z,93982.94
2023-05-22T08:47:58.694Z,93983.75
2023-05-22T08:50:26.046Z,93972.38
2023-05-22T08:52:57.131Z,93978.84
2023-05-22T08:55:24.004Z,93986.09
2023-05-22T08:57:51.575Z,93989.09
2023-05-22T09:00:19.486Z,93991.72
2023-05-22T09:02:47.070Z,93975.78
2023-05-22T09:05:13.801Z,93979.25
2023-05-22T09:07:40.724Z,93978.56
2023-05-22T09:10:08.036Z,93976.31
2023-05-22T09:12:34.706Z,93983.19
2023-05-22T09:15:11.040Z,93979.41
2023-05-22T09:17:41.041Z,93985.50
2023-05-22T09:20:10.405Z,93979.81
2023-05-22T09:22:38.315Z,93988.56
2023-05-22T09:25:05.503Z,93985.16
2023-05-22T09:27:32.047Z,93986.34
2023-05-22T09:29:58.762Z,93980.28
2023-05-22T09:32:29.519Z,93978.41
2023-05-22T09:35:02.257Z,93980.72
2023-05-22T09:37:33.967Z,93980.34
2023-05-22T09:40:05.940Z,93976.16
2023-05-22T09:42:35.400Z,93980.34
2023-05-22T09:45:06.710Z,93982.97
2023-05-22T09:47:36.711Z,93987.19
2023-05-22T09:50:06.499Z,93981.47
2023-05-22T09:52:34.943Z,93987.19
2023-05-22T09:55:04.618Z,93971.19
2023-05-22T09:57:52.217Z,93979.56
2023-05-22T10:00:20.041Z,93974.25
2023-05-22T10:03:08.978Z,93981.88
2023-05-22T10:05:38.003Z,93986.81
2023-05-22T10:08:26.106Z,93987.16
2023-05-22T10:10:53.269Z,93987.94
2023-05-22T10:13:23.269Z,93984.88
2023-05-22T10:15:51.260Z,93986.41
2023-05-22T10:18:18.238Z,93984.88
2023-05-22T10:20:47.030Z,93981.06
2023-05-22T10:23:16.419Z,93987.91
2023-05-22T10:25:44.254Z,93979.50
2023-05-22T10:28:11.220Z,93978.31
2023-05-22T10:30:41.118Z,93978.66
2023-05-22T10:33:36.679Z,93972.47
2023-05-22T10:36:10.443Z,93978.47
2023-05-22T10:39:01.118Z,93971.59
2023-05-22T10:41:28.238Z,93965.47
2023-05-22T10:43:56.792Z,93971.13
2023-05-22T10:46:23.716Z,93968.06
2023-05-22T10:48:52.936Z,93973.34
2023-05-22T10:51:21.909Z,93965.34
2023-05-22T10:54:06.584Z,93962.53
2023-05-22T10:56:35.358Z,93968.59
2023-05-22T10:59:08.252Z,93964.47
2023-05-22T11:01:37.521Z,93965.63
2023-05-22T11:04:13.045Z,93962.91
2023-05-22T11:07:04.316Z,93962.00
2023-05-22T11:09:32.757Z,93957.28
2023-05-22T11:12:18.298Z,93956.91
2023-05-22T11:15:08.719Z,93953.25
2023-05-22T11:17:51.337Z,93953.81
2023-05-22T11:20:17.874Z,93948.31
2023-05-22T11:22:52.109Z,93950.19
2023-05-22T11:25:20.276Z,93949.00
2023-05-22T11:27:48.328Z,93947.78
2023-05-22T11:30:16.311Z,93941.00
2023-05-22T11:32:45.067Z,93940.78
2023-05-22T11:35:18.724Z,93943.06
2023-05-22T11:37:45.927Z,93939.13
2023-05-22T11:40:17.875Z,93938.34
2023-05-22T11:42:44.442Z,93937.44
2023-05-22T11:45:11.527Z,93937.94
2023-05-22T11:47:38.450Z,93935.63
2023-05-22T11:50:06.796Z,93932.69
2023-05-22T11:52:34.875Z,93924.34
2023-05-22T11:55:01.847Z,93928.97
2023-05-22T11:57:28.628Z,93921.06
2023-05-22T11:59:55.173Z,93924.78
2023-05-22T12:02:21.842Z,93927.75
2023-05-22T12:04:53.780Z,93919.44
2023-05-22T12:07:21.506Z,93916.59
2023-05-22T12:09:48.998Z,93913.59
2023-05-22T12:12:16.364Z,93909.59
2023-05-22T12:14:46.055Z,93907.56
2023-05-22T12:17:13.860Z,93906.31
2023-05-22T12:19:41.368Z,93905.19
2023-05-22T12:22:08.986Z,93906.31
2023-05-22T12:24:40.712Z,93902.38
2023-05-22T12:27:10.675Z,93893.16
2023-05-22T12:29:41.302Z,93904.28
2023-05-22T12:32:11.709Z,93906.66
2023-05-22T12:34:46.599Z,93912.97
2023-05-22T12:37:21.062Z,93906.66
2023-05-22T12:39:58.222Z,93894.13
2023-05-22T12:42:25.796Z,93896.56
2023-05-22T12:44:57.020Z,93901.03
2023-05-22T12:47:24.920Z,93916.06
2023-05-22T12:49:51.687Z,93899.59
2023-05-22T12:52:18.286Z,93900.13
2023-05-22T12:54:44.767Z,93915.22
2023-05-22T12:57:11.499Z,93906.19
2023-05-22T12:59:38.091Z,93898.69
2023-05-22T13:02:05.517Z,93893.31
2023-05-22T13:04:32.300Z,93893.44
2023-05-22T13:06:58.851Z,93895.03
2023-05-22T13:09:25.479Z,93899.91
2023-05-22T13:11:52.054Z,93901.22
2023-05-22T13:14:18.609Z,93894.78
2023-05-22T13:16:45.137Z,93893.66
2023-05-22T13:19:11.734Z,93888.38
2023-05-22T13:21:38.270Z,93896.41
2023-05-22T13:24:04.836Z,93885.97
2023-05-22T13:26:31.380Z,93895.94
2023-05-22T13:28:57.919Z,93896.69
2023-05-22T13:31:24.532Z,93886.78
2023-05-22T13:33:51.107Z,93887.16
2023-05-22T13:36:18.038Z,93887.56
2023-05-22T13:38:44.571Z,93888.66
2023-05-22T13:41:11.327Z,93892.06
2023-05-22T13:43:37.785Z,93892.31
2023-05-22T13:46:04.593Z,93893.78
2023-05-22T13:48:31.193Z,93894.06
2023-05-22T13:50:57.642Z,93899.22
2023-05-22T13:53:24.115Z,93900.47
2023-05-22T13:55:50.931Z,93894.09
2023-05-22T13:58:17.534Z,93895.03
2023-05-22T14:00:44.011Z,93896.66
2023-05-22T14:03:11.704Z,93907.03
2023-05-22T14:05:38.499Z,93903.38
2023-05-22T14:08:05.335Z,93910.75
2023-05-22T14:10:32.010Z,93913.91
2023-05-22T14:12:58.489Z,93908.59
2023-05-22T14:15:25.050Z,93908.66
2023-05-22T14:17:51.688Z,93912.09
2023-05-22T14:20:18.321Z,93905.69
2023-05-22T14:22:56.422Z,93895.47
2023-05-22T14:25:23.472Z,93889.41
2023-05-22T14:27:49.919Z,93886.34
2023-05-22T14:30:16.655Z,93880.28
2023-05-22T14:32:43.419Z,93878.78
2023-05-22T14:35:10.097Z,93884.88
2023-05-22T14:37:36.761Z,93879.53
2023-05-22T14:40:03.494Z,93876.84
2023-05-22T14:42:30.031Z,93879.16
2023-05-22T14:44:56.503Z,93881.44
2023-05-22T14:47:22.946Z,93879.91
2023-05-22T14:49:49.412Z,93880.63
2023-05-22T14:52:15.933Z,93898.75
2023-05-22T14:54:43.249Z,93906.66
2023-05-22T14:57:09.835Z,93929.34
2023-05-22T14:59:36.423Z,93926.66
2023-05-22T15:02:03.106Z,93927.06
2023-05-22T15:04:30.070Z,93921.94
2023-05-22T15:06:56.693Z,93940.47
2023-05-22T15:09:23.401Z,93934.50
2023-05-22T15:11:51.044Z,93933.88
2023-05-22T15:14:17.894Z,93933.53
2023-05-22T15:16:44.521Z,93921.75
2023-05-22T15:19:11.174Z,93924.81
2023-05-22T15:21:37.857Z,93920.59
2023-05-22T15:24:04.521Z,93931.16
2023-05-22T15:26:31.083Z,93929.94
2023-05-22T15:29:01.270Z,93921.53
2023-05-22T15:31:28.882Z,93925.66
2023-05-22T15:33:55.812Z,93924.84
2023-05-22T15:36:22.987Z,93932.75
2023-05-22T15:38:49.586Z,93937.22
2023-05-22T15:41:16.120Z,93939.72
2023-05-22T15:43:42.610Z,93931.63
2023-05-22T15:46:10.468Z,93928.41
2023-05-22T15:48:37.037Z,93938.13
2023-05-22T15:51:03.918Z,93936.50
2023-05-22T15:53:30.397Z,93940.94
2023-05-22T15:55:56.896Z,93938.59
2023-05-22T15:58:23.404Z,93928.63
2023-05-22T16:00:49.906Z,93934.63
2023-05-22T16:03:16.961Z,93937.16
2023-05-22T16:05:45.544Z,93944.63
2023-05-22T16:08:12.225Z,93947.19
2023-05-22T16:10:41.532Z,93952.41
2023-05-22T16:13:10.522Z,93997.53
2023-05-22T16:15:39.638Z,94000.31
2023-05-22T16:18:07.036Z,94012.06
2023-05-22T16:20:34.339Z,94024.38
2023-05-22T16:23:01.071Z,94013.44
2023-05-22T16:25:27.705Z,94012.94
2023-05-22T16:27:54.197Z,94006.22
2023-05-22T16:30:21.366Z,94001.88
2023-05-22T16:32:48.924Z,93996.06
2023-05-22T16:35:15.967Z,94002.03
2023-05-22T16:37:42.491Z,93982.97
2023-05-22T16:40:09.439Z,93979.84
2023-05-22T16:42:36.688Z,93962.06
2023-05-22T16:45:03.670Z,93962.91
2023-05-22T16:47:30.216Z,93958.13
2023-05-22T16:49:56.682Z,93950.25
2023-05-22T16:52:25.298Z,93949.63
2023-05-22T16:54:52.520Z,93941.03
2023-05-22T16:57:19.202Z,93937.28
2023-05-22T16:59:45.788Z,93937.31
2023-05-22T17:02:12.417Z,93934.00
2023-05-22T17:04:40.116Z,93935.94
2023-05-22T17:07:06.583Z,93931.84
2023-05-22T17:09:33.233Z,93933.81
2023-05-22T17:11:59.767Z,93925.19
2023-05-22T17:14:26.385Z,93924.19
2023-05-22T17:16:54.240Z,93913.81
2023-05-22T17:19:21.257Z,93906.34
2023-05-22T17:21:47.900Z,93894.69
2023-05-22T17:24:14.781Z,93908.66
2023-05-22T17:26:41.770Z,93901.06
2023-05-22T17:29:08.842Z,93902.91
2023-05-22T17:31:37.454Z,93904.78
2023-05-22T17:34:05.449Z,93905.19
2023-05-22T17:36:32.639Z,93909.00
2023-05-22T17:38:59.556Z,93903.25
2023-05-22T17:41:26.436Z,93913.69
2023-05-22T17:43:54.618Z,93915.47
2023-05-22T17:46:22.231Z,93916.63
2023-05-22T17:48:48.793Z,93919.69
2023-05-22T17:51:15.363Z,93929.63
2023-05-22T17:53:42.210Z,93919.75
2023-05-22T17:56:08.783Z,93940.44
2023-05-22T17:58:35.295Z,93933.94
2023-05-22T18:01:01.941Z,93938.41
2023-05-22T18:03:28.554Z,93935.34
2023-05-22T18:05:55.251Z,93948.47
2023-05-22T18:08:21.738Z,93952.47
2023-05-22T18:10:48.869Z,93949.31
2023-05-22T18:13:15.499Z,93949.16
2023-05-22T18:15:42.065Z,93952.84
2023-05-22T18:18:10.645Z,93947.13
2023-05-22T18:20:39.205Z,93949.72
2023-05-22T18:23:06.252Z,93960.59
2023-05-22T18:25:32.954Z,93960.59
2023-05-22T18:27:59.431Z,93956.88
2023-05-22T18:30:25.962Z,93962.97
2023-05-22T18:32:52.651Z,93951.72
2023-05-22T18:35:19.196Z,93959.78
2023-05-22T18:37:46.125Z,93959.50
2023-05-22T18:40:12.983Z,93964.50
2023-05-22T18:42:39.480Z,93967.50
2023-05-22T18:45:07.078Z,93966.66
2023-05-22T18:47:33.647Z,93967.44
2023-05-22T18:50:00.259Z,93968.00
2023-05-22T18:52:26.822Z,93974.66
2023-05-22T18:54:53.427Z,93984.22
2023-05-22T18:57:19.895Z,93994.22
2023-05-22T18:59:47.027Z,93992.94
2023-05-22T19:02:16.315Z,93980.66
2023-05-22T19:04:43.500Z,93991.03
2023-05-22T19:07:10.271Z,93992.66
2023-05-22T19:09:37.193Z,93990.63
2023-05-22T19:12:03.966Z,93999.47
2023-05-22T19:14:30.418Z,93991.03
2023-05-22T19:16:59.345Z,93995.13
2023-05-22T19:19:26.929Z,93999.91
2023-05-22T19:21:54.147Z,94003.53
2023-05-22T19:24:20.929Z,93993.66
2023-05-22T19:26:47.620Z,94001.16
2023-05-22T19:29:14.287Z,94002.94
2023-05-22T19:31:40.820Z,94002.94
2023-05-22T19:34:07.313Z,93995.03
2023-05-22T19:36:34.749Z,94002.94
2023-05-22T19:39:01.243Z,94006.34
2023-05-22T19:41:27.748Z,94007.88
2023-05-22T19:43:54.216Z,94004.88
2023-05-22T19:46:21.150Z,93997.44
2023-05-22T19:48:47.704Z,94007.97
2023-05-22T19:51:14.276Z,94001.16
2023-05-22T19:53:41.419Z,94000.38
2023-05-22T19:56:07.969Z,93994.69
2023-05-22T19:58:34.423Z,93993.50
2023-05-22T20:01:00.985Z,93993.41
2023-05-22T20:03:27.668Z,93999.47
2023-05-22T20:05:54.266Z,93997.06
2023-05-22T20:08:22.286Z,94005.25
2023-05-22T20:10:48.882Z,94002.09
2023-05-22T20:13:15.552Z,93997.13
2023-05-22T20:15:42.335Z,93998.16
2023-05-22T20:18:10.670Z,93998.16
2023-05-22T20:20:37.272Z,93993.88
2023-05-22T20:23:03.784Z,93995.84
2023-05-22T20:25:30.299Z,93995.44
2023-05-22T20:27:56.779Z,93995.84
2023-05-22T20:30:23.286Z,93998.47
2023-05-22T20:32:49.848Z,93998.84
2023-05-22T20:35:20.180Z,94004.00
2023-05-22T20:37:47.298Z,93981.03
2023-05-22T20:40:15.001Z,93997.69
2023-05-22T20:42:42.708Z,93997.63
2023-05-22T20:45:14.893Z,93995.22
2023-05-22T20:47:43.331Z,93997.78
2023-05-22T20:50:11.013Z,94000.31
2023-05-22T20:52:37.604Z,94004.34
2023-05-22T20:55:04.918Z,94009.19
2023-05-22T20:57:31.507Z,94005.69
2023-05-22T20:59:58.524Z,94017.13
2023-05-22T21:02:25.792Z,94029.41
2023-05-22T21:04:52.475Z,94024.84
2023-05-22T21:07:19.544Z,94025.91
2023-05-22T21:09:45.997Z,94024.38
2023-05-22T21:12:12.513Z,94029.66
2023-05-22T21:14:40.113Z,94031.53
2023-05-22T21:17:06.853Z,94038.66
2023-05-22T21:19:33.456Z,94030.31
2023-05-22T21:22:00.064Z,94044.91
2023-05-22T21:24:26.647Z,94038.78
2023-05-22T21:26:53.116Z,94041.00
2023-05-22T21:29:19.539Z,94039.03
2023-05-22T21:31:46.058Z,94040.88
2023-05-22T21:34:12.634Z,94048.00
2023-05-22T21:36:39.143Z,94049.88
2023-05-22T21:39:05.640Z,94048.78
2023-05-22T21:41:32.114Z,94047.88
2023-05-22T21:43:58.738Z,94052.31
2023-05-22T21:46:25.349Z,94046.38
2023-05-22T21:48:53.547Z,94053.81
2023-05-22T21:51:20.062Z,94047.13
2023-05-22T21:53:46.868Z,94064.88
2023-05-22T21:56:13.308Z,94058.88
2023-05-22T21:58:39.825Z,94064.56
2023-05-22T22:01:06.389Z,94066.09
2023-05-22T22:03:32.949Z,94058.53
2023-05-22T22:05:59.691Z,94063.44
2023-05-22T22:08:28.245Z,94054.81
2023-05-22T22:10:55.562Z,94058.66
2023-05-22T22:13:22.249Z,94060.94
2023-05-22T22:15:48.687Z,94065.09
2023-05-22T22:18:15.805Z,94062.47
2023-05-22T22:20:44.829Z,94065.09
2023-05-22T22:23:12.492Z,94053.38
2023-05-22T22:25:39.384Z,94071.56
2023-05-22T22:28:07.158Z,94062.78
2023-05-22T22:30:33.770Z,94062.78
2023-05-22T22:33:00.614Z,94065.88
2023-05-22T22:35:27.256Z,94072.34
2023-05-22T22:37:53.717Z,94072.66
2023-05-22T22:40:20.436Z,94075.94
2023-05-22T22:42:46.939Z,94075.88
2023-05-22T22:45:14.772Z,94068.63
2023-05-22T22:47:41.379Z,94071.91
2023-05-22T22:50:09.902Z,94076.31
2023-05-22T22:52:37.819Z,94075.88
2023-05-22T22:55:06.643Z,94074.00
2023-05-22T22:57:33.194Z,94063.38
2023-05-22T22:59:59.827Z,94079.59
2023-05-22T23:02:26.359Z,94081.13
2023-05-22T23:04:52.974Z,94081.47
2023-05-22T23:07:19.501Z,94086.28
2023-05-22T23:09:46.025Z,94085.84
2023-05-22T23:12:12.612Z,94087.28
2023-05-22T23:14:39.134Z,94086.06
2023-05-22T23:17:05.798Z,94089.38
2023-05-22T23:19:32.382Z,94090.56
2023-05-22T23:21:58.942Z,94087.16
2023-05-22T23:24:25.684Z,94089.13
2023-05-22T23:26:52.931Z,94082.78
2023-05-22T23:29:19.456Z,94082.44
2023-05-22T23:31:47.591Z,94083.88
2023-05-22T23:34:14.266Z,94086.94
2023-05-22T23:36:41.061Z,94086.19
2023-05-22T23:39:07.785Z,94081.25
2023-05-22T23:41:35.402Z,94084.75
2023-05-22T23:44:02.341Z,94081.38
2023-05-22T23:46:29.493Z,94076.53
2023-05-22T23:48:56.300Z,94073.91
2023-05-22T23:51:22.933Z,94083.22
2023-05-22T23:53:49.632Z,94071.16
2023-05-22T23:56:16.979Z,94081.69
2023-05-22T23:58:43.552Z,94076.41
